Cabot, Vermont
Current Conditions -  °F | °C
As of 9:12 PM on Wednesday 17 Dec 2014 (Local Time) from KMVL Reporting Station
Haze Haze  
Wind Chill: 34°   Ceiling: 2700
Heat Index: 34°   Visibility: 4mi
Dew Point: 32°   Wind: 0mph
Humidity: 92%   Direction: NA
Pressure: 29.75"   Gusts: NA
Location:  44.4°N, 72.31°W
Report Text: KMVL 180212Z AUTO 00000KT 4SM BR FEW006 OVC027 01/00 A2975 RMK AO2 T00110000 TSNO
Loading
Personal Weather Stations






























Interactive Weather Map New forecast layout! Learn more

10-Day Weather Forecast

Advertisements
Track Severe Weather on mobile